• Join FlightAware (Why Join?)
  • Login
  • US Flag 
09:39PM EDT


 

Airport Tracker/Info


-or-


 

Live Flight TrackerFlight Track Log ✈ UAL3767 ✈ 02-May-2013 ✈ KORD - KATL

Flight Track Log - Related Links

Times and Time Zones

All times are in EDT time to prevent confusion due to time zone crossing. See the UAL3767 flight status page for this flight to view local times or setup timezone preferences in your user account.

Time Position Orientation Groundspeed Altitude Reporting Facility
EDT Latitude Longitude Course Direction KTS MPH feet Rate Location/Type
10:08AM 41.9500 -87.8333 180° South 196 226 3,300  Level Chicago TRACON
10:10AM 41.8689 -87.7839 156° South 231 266 7,400 2,460 Climbing Chicago Center
10:11AM 41.7967 -87.7958 187° South 264 304 10,100 3,000 Climbing Chicago Center
10:12AM 41.7092 -87.8133 188° South 265 305 13,700 2,880 Climbing Chicago Center
10:13AM 41.6317 -87.8303 189° South 272 313 16,100 2,160 Climbing Chicago Center
10:14AM 41.3645 -87.6186 180° South  Level Estimated
10:14AM 41.5486 -87.8489 190° South 286 329 18,200  Level Chicago Center
10:15AM 41.4592 -87.8681 189° South 308 354 19,800 1,320 Climbing Chicago Center
10:16AM 41.3575 -87.8781 184° South 359 413 21,000 1,320 Climbing Chicago Center
10:17AM 41.2481 -87.8756 179° South 385 443 22,600 1,560 Climbing Chicago Center
10:18AM 41.1372 -87.8756 180° South 396 456 24,300 1,500 Climbing Chicago Center
10:19AM 41.0008 -87.8742 180° South 407 468 25,700 1,380 Climbing Chicago Center
10:20AM 40.8853 -87.8717 179° South 415 478 27,200 1,260 Climbing Chicago Center
10:21AM 40.7672 -87.8717 180° South 421 484 28,400 1,140 Climbing Chicago Center
10:22AM 40.6500 -87.8678 179° South 423 487 29,600 780 Climbing Chicago Center
10:23AM 40.5297 -87.8678 180° South 429 494 30,100 720 Climbing Chicago Center
10:24AM 40.4058 -87.8661 179° South 441 507 31,200 1,260 Climbing Chicago Center
10:25AM 40.3100 -87.8650 179° South 437 503 32,400 1,380 Climbing Indianapolis Center
10:26AM 40.1700 -87.8603 179° South 429 494 33,800 1,140 Climbing Indianapolis Center
10:27AM 40.0581 -87.8536 177° South 413 475 34,800 540 Climbing Indianapolis Center
10:28AM 39.9444 -87.8489 178° South 410 472 35,000 60 Climbing Indianapolis Center
10:29AM 39.8239 -87.8433 178° South 426 490 35,000  Level Indianapolis Center
10:30AM 39.7017 -87.8389 178° South 437 503 35,000  Level Indianapolis Center
10:31AM 39.5564 -87.8319 178° South 438 504 35,000  Level Indianapolis Center
10:32AM 39.4367 -87.8267 178° South 434 499 35,000  Level Indianapolis Center
10:34AM 39.3078 -87.8203 178° South 431 496 35,000  Level Indianapolis Center
10:35AM 39.1889 -87.8150 178° South 427 491 35,000  Level Indianapolis Center
10:36AM 39.0683 -87.8103 178° South 431 496 35,000  Level Indianapolis Center
10:37AM 38.9461 -87.8042 178° South 438 504 35,000  Level Indianapolis Center
10:38AM 38.8233 -87.8000 178° South 441 507 35,000  Level Indianapolis Center
10:39AM 38.6994 -87.7947 178° South 445 512 35,000  Level Indianapolis Center
10:40AM 38.5494 -87.7878 178° South 449 517 35,000  Level Indianapolis Center
10:41AM 38.4236 -87.7825 178° South 451 519 35,000  Level Indianapolis Center
10:42AM 38.2978 -87.7786 179° South 452 520 35,000  Level Indianapolis Center
10:43AM 38.1714 -87.7736 178° South 455 524 35,000  Level Indianapolis Center
10:44AM 38.0456 -87.7686 178° South 454 522 35,000  Level Indianapolis Center
10:45AM 37.9203 -87.7503 173° South 458 527 35,000  Level Indianapolis Center
10:46AM 37.7844 -87.6731 156° South 447 514 35,000  Level Indianapolis Center
10:47AM 37.6806 -87.6094 154° Southeast 451 519 35,000  Level Indianapolis Center
10:48AM 37.5878 -87.5569 156° South 415 478 35,000  Level Memphis Center
10:49AM 37.4883 -87.4950 154° Southeast 433 498 35,000  Level Memphis Center
10:50AM 37.3722 -87.4261 155° Southeast 449 517 35,000  Level Memphis Center
10:51AM 37.2622 -87.3572 154° Southeast 443 510 35,000  Level Memphis Center
10:52AM 37.1503 -87.2886 154° Southeast 448 516 35,000  Level Memphis Center
10:53AM 37.0358 -87.2203 155° Southeast 448 516 35,000  Level Memphis Center
10:54AM 36.9239 -87.1519 154° Southeast 448 516 35,000  Level Memphis Center
10:55AM 36.8011 -87.0792 155° Southeast 448 516 35,000  Level Memphis Center
10:56AM 36.6867 -87.0114 155° Southeast 448 516 35,000  Level Memphis Center
10:57AM 36.5744 -86.9436 154° Southeast 448 516 35,000 -240 Level Memphis Center
10:58AM 36.4642 -86.8761 154° Southeast 441 507 34,600 -900 Descending Memphis Center
10:59AM 36.3478 -86.8142 157° South 462 532 33,300 -1,620 Descending Memphis Center
11:00AM 36.2289 -86.7394 153° Southeast 475 547 31,400 -1,200 Descending Memphis Center
11:01AM 36.1142 -86.6675 153° Southeast 469 540 31,000 -240 Descending Memphis Center
11:02AM 36.0050 -86.5800 147° Southeast 469 540 31,000  Level Memphis Center
11:03AM 35.8961 -86.4903 146° Southeast 469 540 31,000  Level Memphis Center
11:05AM 35.5919 -86.2478 147° Southeast 490 564 31,000  Level Atlanta Center
11:06AM 35.4831 -86.1583 146° Southeast 474 545 31,000  Level Atlanta Center
11:07AM 35.3697 -86.0711 148° Southeast 484 557 31,000 -60 Level Atlanta Center
11:08AM 35.2586 -85.9794 146° Southeast 484 557 30,900 -600 Descending Atlanta Center
11:09AM 35.1472 -85.8931 148° Southeast 484 557 29,900 -1,320 Descending Atlanta Center
11:10AM 35.0400 -85.8069 147° Southeast 477 549 28,300 -1,560 Descending Atlanta Center
11:11AM 34.9328 -85.7236 147° Southeast 472 543 26,800 -1,500 Descending Atlanta Center
11:12AM 34.8314 -85.6431 147° Southeast 460 529 25,300 -1,440 Descending Atlanta Center
11:13AM 34.7344 -85.5681 148° Southeast 432 497 24,000 2,820 Descending Atlanta Center
11:14AM 34.6394 -85.4906 146° Southeast 420 483 31,000 -1,740 Climbing Atlanta Center
11:15AM 34.5442 -85.4158 147° Southeast 415 478 20,600 -6,060 Descending Atlanta Center
11:16AM 34.4511 -85.3436 147° Southeast 409 471 18,900 -1,620 Descending Atlanta Center
11:17AM 34.3661 -85.2769 147° Southeast 388 447 17,400 -1,500 Descending Atlanta Center
11:18AM 34.2894 -85.2181 148° Southeast 360 414 16,000 -1,200 Descending Atlanta Center
11:19AM 34.2150 -85.1667 150° Southeast 320 368 15,000 -1,140 Descending Atlanta Center
11:20AM 34.1611 -85.1008 135° Southeast 284 327 13,800 -1,020 Descending Atlanta Center
11:21AM 34.1053 -85.0347 136° Southeast 284 327 13,000 -840 Descending Atlanta Center
11:22AM 34.0517 -84.9689 134° Southeast 279 321 12,200 -1,140 Descending Atlanta Center
11:23AM 33.9958 -84.9033 136° Southeast 279 321 10,800 -1,440 Descending Atlanta Center
11:24AM 33.9439 -84.8400 135° Southeast 273 314 9,400 -1,320 Descending Atlanta Center
11:25AM 33.8881 -84.7794 138° Southeast 273 314 8,200 -1,320 Descending Atlanta Center
11:26AM 33.8500 -84.7667 164° South 265 305 7,500 -1,440 Descending Atlanta TRACON
11:27AM 33.7833 -84.7833 192° South 271 312 6,100 -840 Descending Atlanta TRACON
11:28AM 33.7167 -84.8167 203° Southwest 267 307 6,000 -120 Descending Atlanta TRACON
11:29AM 33.6667 -84.8500 209° Southwest 237 273 5,900 -360 Descending Atlanta TRACON
11:30AM 33.6500 -84.8000 112° Southeast 159 183 5,400 -480 Descending Atlanta TRACON
11:31AM 33.6500 -84.7500 90° East 153 176 5,000 -240 Descending Atlanta TRACON
11:32AM 33.6500 -84.7000 90° East 156 180 5,000 -180 Level Atlanta TRACON
11:33AM 33.6500 -84.6667 90° East 152 175 4,700 -660 Descending Atlanta TRACON
11:34AM 33.6500 -84.6000 90° East 149 171 3,700 -900 Descending Atlanta TRACON
11:35AM 33.6500 -84.5667 90° East 146 168 3,000 -780 Descending Atlanta TRACON
11:36AM 33.6500 -84.5167 90° East 117 135 2,300 -660 Descending Atlanta TRACON
11:37AM 33.6500 -84.4833 90° East 122 140 1,700 -600 Descending Atlanta TRACON
11:38AM 33.6367 -84.4279 107° East  Level Estimated
11:45AM 33.6367 -84.4279 107° East  Level Estimated
11:46AM 33.6367 -84.4279 107° East  Level Estimated